sensor_id;sensor_type;location;lat;lon;timestamp;P1;durP1;ratioP1;P2;durP2;ratioP2
36441;SDS011;64346;50.820;16.274;2022-10-23T00:01:28;21.08;;;11.57;;
36441;SDS011;64346;50.820;16.274;2022-10-23T00:03:59;17.85;;;10.20;;
36441;SDS011;64346;50.820;16.274;2022-10-23T00:06:28;19.98;;;11.77;;
36441;SDS011;64346;50.820;16.274;2022-10-23T00:08:55;19.10;;;10.77;;
36441;SDS011;64346;50.820;16.274;2022-10-23T00:11:23;20.13;;;10.90;;
36441;SDS011;64346;50.820;16.274;2022-10-23T00:13:56;17.48;;;11.02;;
36441;SDS011;64346;50.820;16.274;2022-10-23T00:16:25;20.40;;;11.07;;
36441;SDS011;64346;50.820;16.274;2022-10-23T00:18:53;18.42;;;10.77;;
36441;SDS011;64346;50.820;16.274;2022-10-23T00:21:21;20.60;;;11.50;;
36441;SDS011;64346;50.820;16.274;2022-10-23T00:23:49;18.58;;;10.55;;
36441;SDS011;64346;50.820;16.274;2022-10-23T00:26:16;17.98;;;10.73;;
36441;SDS011;64346;50.820;16.274;2022-10-23T00:28:46;19.75;;;10.73;;
36441;SDS011;64346;50.820;16.274;2022-10-23T00:31:15;21.13;;;11.25;;
36441;SDS011;64346;50.820;16.274;2022-10-23T00:33:46;20.52;;;11.10;;
36441;SDS011;64346;50.820;16.274;2022-10-23T00:36:14;21.30;;;11.70;;
36441;SDS011;64346;50.820;16.274;2022-10-23T00:38:43;22.88;;;12.35;;
36441;SDS011;64346;50.820;16.274;2022-10-23T00:41:21;23.33;;;12.23;;
36441;SDS011;64346;50.820;16.274;2022-10-23T00:44:02;21.88;;;12.77;;
36441;SDS011;64346;50.820;16.274;2022-10-23T00:46:36;22.17;;;12.35;;
36441;SDS011;64346;50.820;16.274;2022-10-23T00:49:06;22.23;;;12.38;;
36441;SDS011;64346;50.820;16.274;2022-10-23T00:51:52;21.20;;;12.18;;
36441;SDS011;64346;50.820;16.274;2022-10-23T00:54:25;22.17;;;12.23;;
36441;SDS011;64346;50.820;16.274;2022-10-23T00:56:56;22.73;;;12.55;;
36441;SDS011;64346;50.820;16.274;2022-10-23T00:59:29;24.63;;;13.02;;
36441;SDS011;64346;50.820;16.274;2022-10-23T01:01:57;22.73;;;12.38;;
36441;SDS011;64346;50.820;16.274;2022-10-23T01:04:26;23.67;;;12.68;;
36441;SDS011;64346;50.820;16.274;2022-10-23T01:09:23;20.85;;;11.90;;
36441;SDS011;64346;50.820;16.274;2022-10-23T01:25:46;22.52;;;13.02;;
36441;SDS011;64346;50.820;16.274;2022-10-23T01:30:59;23.15;;;13.10;;
36441;SDS011;64346;50.820;16.274;2022-10-23T01:33:51;24.85;;;12.73;;
36441;SDS011;64346;50.820;16.274;2022-10-23T01:36:26;24.85;;;14.20;;
36441;SDS011;64346;50.820;16.274;2022-10-23T01:38:57;25.35;;;13.57;;
36441;SDS011;64346;50.820;16.274;2022-10-23T01:41:49;24.42;;;12.98;;
36441;SDS011;64346;50.820;16.274;2022-10-23T01:44:22;19.00;;;11.70;;
36441;SDS011;64346;50.820;16.274;2022-10-23T01:46:58;19.65;;;11.60;;
36441;SDS011;64346;50.820;16.274;2022-10-23T01:49:29;22.00;;;12.63;;
36441;SDS011;64346;50.820;16.274;2022-10-23T01:51:59;24.17;;;12.52;;
36441;SDS011;64346;50.820;16.274;2022-10-23T01:54:28;22.83;;;12.00;;
36441;SDS011;64346;50.820;16.274;2022-10-23T01:56:58;23.35;;;12.52;;
36441;SDS011;64346;50.820;16.274;2022-10-23T01:59:31;22.85;;;12.98;;
36441;SDS011;64346;50.820;16.274;2022-10-23T02:02:03;22.13;;;12.98;;
36441;SDS011;64346;50.820;16.274;2022-10-23T02:04:33;22.85;;;12.57;;
36441;SDS011;64346;50.820;16.274;2022-10-23T02:07:06;22.73;;;13.30;;
36441;SDS011;64346;50.820;16.274;2022-10-23T02:09:36;20.83;;;11.82;;
36441;SDS011;64346;50.820;16.274;2022-10-23T02:12:07;31.10;;;20.77;;
36441;SDS011;64346;50.820;16.274;2022-10-23T02:17:35;26.95;;;17.10;;
36441;SDS011;64346;50.820;16.274;2022-10-23T02:22:51;20.65;;;12.27;;
36441;SDS011;64346;50.820;16.274;2022-10-23T02:25:22;21.27;;;11.80;;
36441;SDS011;64346;50.820;16.274;2022-10-23T02:28:05;20.88;;;12.48;;
36441;SDS011;64346;50.820;16.274;2022-10-23T02:30:41;19.42;;;11.48;;
36441;SDS011;64346;50.820;16.274;2022-10-23T02:33:12;22.05;;;12.27;;
36441;SDS011;64346;50.820;16.274;2022-10-23T02:35:43;20.02;;;12.15;;
36441;SDS011;64346;50.820;16.274;2022-10-23T02:41:05;22.45;;;12.25;;
36441;SDS011;64346;50.820;16.274;2022-10-23T02:43:40;20.65;;;12.10;;
36441;SDS011;64346;50.820;16.274;2022-10-23T02:46:20;19.58;;;11.57;;
36441;SDS011;64346;50.820;16.274;2022-10-23T02:49:01;20.15;;;11.10;;
36441;SDS011;64346;50.820;16.274;2022-10-23T02:57:08;17.55;;;9.93;;
36441;SDS011;64346;50.820;16.274;2022-10-23T02:59:58;18.08;;;11.43;;
36441;SDS011;64346;50.820;16.274;2022-10-23T03:05:06;19.05;;;11.15;;
36441;SDS011;64346;50.820;16.274;2022-10-23T03:07:37;16.63;;;10.40;;
36441;SDS011;64346;50.820;16.274;2022-10-23T03:10:07;17.45;;;10.38;;
36441;SDS011;64346;50.820;16.274;2022-10-23T03:12:35;19.65;;;10.88;;
36441;SDS011;64346;50.820;16.274;2022-10-23T03:15:03;16.58;;;10.18;;
36441;SDS011;64346;50.820;16.274;2022-10-23T03:17:31;17.67;;;10.25;;
36441;SDS011;64346;50.820;16.274;2022-10-23T03:19:58;18.52;;;10.57;;
36441;SDS011;64346;50.820;16.274;2022-10-23T03:22:25;17.48;;;10.38;;
36441;SDS011;64346;50.820;16.274;2022-10-23T03:24:52;17.80;;;10.90;;
36441;SDS011;64346;50.820;16.274;2022-10-23T03:27:20;16.33;;;10.18;;
36441;SDS011;64346;50.820;16.274;2022-10-23T03:29:47;20.48;;;11.02;;
36441;SDS011;64346;50.820;16.274;2022-10-23T03:32:14;16.35;;;10.05;;
36441;SDS011;64346;50.820;16.274;2022-10-23T03:34:42;15.82;;;10.20;;
36441;SDS011;64346;50.820;16.274;2022-10-23T03:37:09;16.48;;;10.43;;
36441;SDS011;64346;50.820;16.274;2022-10-23T03:39:36;25.63;;;13.70;;
36441;SDS011;64346;50.820;16.274;2022-10-23T03:42:04;19.13;;;10.82;;
36441;SDS011;64346;50.820;16.274;2022-10-23T03:44:31;18.73;;;10.73;;
36441;SDS011;64346;50.820;16.274;2022-10-23T03:46:58;20.05;;;11.27;;
36441;SDS011;64346;50.820;16.274;2022-10-23T03:49:28;18.48;;;11.25;;
36441;SDS011;64346;50.820;16.274;2022-10-23T03:51:55;19.63;;;11.57;;
36441;SDS011;64346;50.820;16.274;2022-10-23T03:54:24;20.50;;;11.23;;
36441;SDS011;64346;50.820;16.274;2022-10-23T03:56:53;17.02;;;10.23;;
36441;SDS011;64346;50.820;16.274;2022-10-23T03:59:23;20.85;;;11.55;;
36441;SDS011;64346;50.820;16.274;2022-10-23T04:01:53;19.75;;;10.65;;
36441;SDS011;64346;50.820;16.274;2022-10-23T04:04:20;17.55;;;9.98;;
36441;SDS011;64346;50.820;16.274;2022-10-23T04:06:47;18.98;;;11.45;;
36441;SDS011;64346;50.820;16.274;2022-10-23T04:09:15;16.38;;;9.95;;
36441;SDS011;64346;50.820;16.274;2022-10-23T04:11:44;18.75;;;10.30;;
36441;SDS011;64346;50.820;16.274;2022-10-23T04:14:14;15.18;;;9.93;;
36441;SDS011;64346;50.820;16.274;2022-10-23T04:16:41;17.42;;;9.95;;
36441;SDS011;64346;50.820;16.274;2022-10-23T04:19:09;14.48;;;9.00;;
36441;SDS011;64346;50.820;16.274;2022-10-23T04:21:36;14.88;;;9.43;;
36441;SDS011;64346;50.820;16.274;2022-10-23T04:24:03;16.85;;;10.68;;
36441;SDS011;64346;50.820;16.274;2022-10-23T04:26:31;16.25;;;10.45;;
36441;SDS011;64346;50.820;16.274;2022-10-23T04:28:58;16.38;;;9.75;;
36441;SDS011;64346;50.820;16.274;2022-10-23T04:31:26;15.63;;;10.00;;
36441;SDS011;64346;50.820;16.274;2022-10-23T04:33:53;18.38;;;10.13;;
36441;SDS011;64346;50.820;16.274;2022-10-23T04:36:20;16.85;;;10.45;;
36441;SDS011;64346;50.820;16.274;2022-10-23T04:38:47;14.00;;;9.20;;
36441;SDS011;64346;50.820;16.274;2022-10-23T04:41:15;13.82;;;8.85;;
36441;SDS011;64346;50.820;16.274;2022-10-23T04:43:42;17.00;;;10.95;;
36441;SDS011;64346;50.820;16.274;2022-10-23T04:46:14;13.85;;;8.32;;
36441;SDS011;64346;50.820;16.274;2022-10-23T04:48:41;15.25;;;9.15;;
36441;SDS011;64346;50.820;16.274;2022-10-23T04:51:08;14.77;;;8.90;;
36441;SDS011;64346;50.820;16.274;2022-10-23T04:53:39;16.27;;;9.48;;
36441;SDS011;64346;50.820;16.274;2022-10-23T04:56:12;16.48;;;9.82;;
36441;SDS011;64346;50.820;16.274;2022-10-23T04:58:40;14.35;;;9.18;;
36441;SDS011;64346;50.820;16.274;2022-10-23T05:01:10;14.40;;;8.90;;
36441;SDS011;64346;50.820;16.274;2022-10-23T05:03:38;14.27;;;8.95;;
36441;SDS011;64346;50.820;16.274;2022-10-23T05:06:05;16.30;;;9.60;;
36441;SDS011;64346;50.820;16.274;2022-10-23T05:08:33;15.55;;;8.95;;
36441;SDS011;64346;50.820;16.274;2022-10-23T05:11:00;14.10;;;8.45;;
36441;SDS011;64346;50.820;16.274;2022-10-23T05:13:30;13.23;;;7.93;;
36441;SDS011;64346;50.820;16.274;2022-10-23T05:15:57;14.13;;;8.02;;
36441;SDS011;64346;50.820;16.274;2022-10-23T05:20:59;13.40;;;7.88;;
36441;SDS011;64346;50.820;16.274;2022-10-23T05:23:42;13.57;;;8.00;;
36441;SDS011;64346;50.820;16.274;2022-10-23T05:26:11;13.35;;;8.48;;
36441;SDS011;64346;50.820;16.274;2022-10-23T05:28:39;14.77;;;8.45;;
36441;SDS011;64346;50.820;16.274;2022-10-23T05:31:08;15.68;;;8.60;;
36441;SDS011;64346;50.820;16.274;2022-10-23T05:33:38;13.05;;;7.78;;
36441;SDS011;64346;50.820;16.274;2022-10-23T05:36:06;13.57;;;8.07;;
36441;SDS011;64346;50.820;16.274;2022-10-23T05:38:36;15.38;;;7.90;;
36441;SDS011;64346;50.820;16.274;2022-10-23T05:41:07;14.27;;;8.30;;
36441;SDS011;64346;50.820;16.274;2022-10-23T05:43:34;18.27;;;9.40;;
36441;SDS011;64346;50.820;16.274;2022-10-23T05:46:08;13.57;;;7.93;;
36441;SDS011;64346;50.820;16.274;2022-10-23T05:48:35;12.32;;;7.15;;
36441;SDS011;64346;50.820;16.274;2022-10-23T05:51:03;15.02;;;8.10;;
36441;SDS011;64346;50.820;16.274;2022-10-23T05:53:31;24.48;;;16.25;;
36441;SDS011;64346;50.820;16.274;2022-10-23T05:56:07;30.67;;;21.05;;
36441;SDS011;64346;50.820;16.274;2022-10-23T05:58:34;15.18;;;8.57;;
36441;SDS011;64346;50.820;16.274;2022-10-23T06:01:06;14.88;;;7.63;;
36441;SDS011;64346;50.820;16.274;2022-10-23T06:03:35;10.68;;;5.65;;
36441;SDS011;64346;50.820;16.274;2022-10-23T06:06:05;12.32;;;6.60;;
36441;SDS011;64346;50.820;16.274;2022-10-23T06:08:33;10.85;;;5.45;;
36441;SDS011;64346;50.820;16.274;2022-10-23T06:11:05;10.93;;;5.70;;
36441;SDS011;64346;50.820;16.274;2022-10-23T06:13:36;12.43;;;5.75;;
36441;SDS011;64346;50.820;16.274;2022-10-23T06:16:07;11.90;;;6.13;;
36441;SDS011;64346;50.820;16.274;2022-10-23T06:18:41;10.20;;;5.47;;
36441;SDS011;64346;50.820;16.274;2022-10-23T06:21:08;10.48;;;5.25;;
36441;SDS011;64346;50.820;16.274;2022-10-23T06:23:39;10.82;;;6.07;;
36441;SDS011;64346;50.820;16.274;2022-10-23T06:26:10;10.18;;;5.18;;
36441;SDS011;64346;50.820;16.274;2022-10-23T06:28:39;8.57;;;4.93;;
36441;SDS011;64346;50.820;16.274;2022-10-23T06:31:07;11.80;;;5.53;;
36441;SDS011;64346;50.820;16.274;2022-10-23T06:33:40;8.45;;;4.45;;
36441;SDS011;64346;50.820;16.274;2022-10-23T06:36:08;12.02;;;5.80;;
36441;SDS011;64346;50.820;16.274;2022-10-23T06:38:36;10.80;;;5.28;;
36441;SDS011;64346;50.820;16.274;2022-10-23T06:41:04;11.70;;;6.00;;
36441;SDS011;64346;50.820;16.274;2022-10-23T06:43:32;12.23;;;6.60;;
36441;SDS011;64346;50.820;16.274;2022-10-23T06:46:00;12.07;;;6.47;;
36441;SDS011;64346;50.820;16.274;2022-10-23T06:48:29;11.73;;;6.10;;
36441;SDS011;64346;50.820;16.274;2022-10-23T06:50:57;11.65;;;6.18;;
36441;SDS011;64346;50.820;16.274;2022-10-23T06:53:25;16.27;;;6.65;;
36441;SDS011;64346;50.820;16.274;2022-10-23T06:55:57;10.98;;;6.07;;
36441;SDS011;64346;50.820;16.274;2022-10-23T06:58:26;11.32;;;6.00;;
36441;SDS011;64346;50.820;16.274;2022-10-23T07:00:53;9.45;;;4.55;;
36441;SDS011;64346;50.820;16.274;2022-10-23T07:03:25;13.07;;;8.25;;
36441;SDS011;64346;50.820;16.274;2022-10-23T07:05:53;8.57;;;5.18;;
36441;SDS011;64346;50.820;16.274;2022-10-23T07:08:20;8.02;;;4.75;;
36441;SDS011;64346;50.820;16.274;2022-10-23T07:10:47;6.63;;;3.80;;
36441;SDS011;64346;50.820;16.274;2022-10-23T07:13:17;8.60;;;4.10;;
36441;SDS011;64346;50.820;16.274;2022-10-23T07:15:44;7.35;;;3.60;;
36441;SDS011;64346;50.820;16.274;2022-10-23T07:18:12;9.00;;;4.90;;
36441;SDS011;64346;50.820;16.274;2022-10-23T07:20:42;7.72;;;4.70;;
36441;SDS011;64346;50.820;16.274;2022-10-23T07:23:10;9.52;;;4.80;;
36441;SDS011;64346;50.820;16.274;2022-10-23T07:25:37;8.95;;;4.00;;
36441;SDS011;64346;50.820;16.274;2022-10-23T07:28:07;13.48;;;10.25;;
36441;SDS011;64346;50.820;16.274;2022-10-23T07:30:35;11.05;;;7.15;;
36441;SDS011;64346;50.820;16.274;2022-10-23T07:33:02;10.55;;;5.80;;
36441;SDS011;64346;50.820;16.274;2022-10-23T07:35:32;10.73;;;5.38;;
36441;SDS011;64346;50.820;16.274;2022-10-23T07:38:04;13.02;;;5.95;;
36441;SDS011;64346;50.820;16.274;2022-10-23T07:40:31;8.70;;;5.40;;
36441;SDS011;64346;50.820;16.274;2022-10-23T07:42:58;8.57;;;4.60;;
36441;SDS011;64346;50.820;16.274;2022-10-23T07:45:28;8.73;;;5.20;;
36441;SDS011;64346;50.820;16.274;2022-10-23T07:47:56;8.38;;;4.65;;
36441;SDS011;64346;50.820;16.274;2022-10-23T07:50:23;8.63;;;4.28;;
36441;SDS011;64346;50.820;16.274;2022-10-23T07:52:52;8.93;;;4.68;;
36441;SDS011;64346;50.820;16.274;2022-10-23T07:55:22;8.30;;;4.10;;
36441;SDS011;64346;50.820;16.274;2022-10-23T07:57:49;7.32;;;4.15;;
36441;SDS011;64346;50.820;16.274;2022-10-23T08:00:16;8.35;;;5.18;;
36441;SDS011;64346;50.820;16.274;2022-10-23T08:02:44;7.22;;;4.15;;
36441;SDS011;64346;50.820;16.274;2022-10-23T08:05:11;7.25;;;3.75;;
36441;SDS011;64346;50.820;16.274;2022-10-23T08:07:39;6.70;;;3.58;;
36441;SDS011;64346;50.820;16.274;2022-10-23T08:10:06;6.38;;;3.38;;
36441;SDS011;64346;50.820;16.274;2022-10-23T08:12:35;4.88;;;2.90;;
36441;SDS011;64346;50.820;16.274;2022-10-23T08:15:03;4.38;;;2.78;;
36441;SDS011;64346;50.820;16.274;2022-10-23T08:17:31;7.82;;;4.70;;
36441;SDS011;64346;50.820;16.274;2022-10-23T08:19:58;5.28;;;3.80;;
36441;SDS011;64346;50.820;16.274;2022-10-23T08:22:28;4.78;;;3.30;;
36441;SDS011;64346;50.820;16.274;2022-10-23T08:24:55;6.50;;;3.47;;
36441;SDS011;64346;50.820;16.274;2022-10-23T08:27:23;5.47;;;2.70;;
36441;SDS011;64346;50.820;16.274;2022-10-23T08:29:53;6.85;;;3.42;;
36441;SDS011;64346;50.820;16.274;2022-10-23T08:32:20;6.65;;;4.15;;
36441;SDS011;64346;50.820;16.274;2022-10-23T08:34:47;6.65;;;3.78;;
36441;SDS011;64346;50.820;16.274;2022-10-23T08:37:14;7.97;;;4.07;;
36441;SDS011;64346;50.820;16.274;2022-10-23T08:39:44;7.45;;;4.03;;
36441;SDS011;64346;50.820;16.274;2022-10-23T08:42:23;9.63;;;4.60;;
36441;SDS011;64346;50.820;16.274;2022-10-23T08:50:49;8.85;;;4.43;;
36441;SDS011;64346;50.820;16.274;2022-10-23T08:56:02;8.80;;;4.95;;
36441;SDS011;64346;50.820;16.274;2022-10-23T08:58:38;7.97;;;4.35;;
36441;SDS011;64346;50.820;16.274;2022-10-23T09:01:22;10.35;;;5.03;;
36441;SDS011;64346;50.820;16.274;2022-10-23T09:03:56;9.45;;;4.63;;
36441;SDS011;64346;50.820;16.274;2022-10-23T09:12:11;8.38;;;4.28;;
36441;SDS011;64346;50.820;16.274;2022-10-23T09:25:38;8.77;;;5.28;;
36441;SDS011;64346;50.820;16.274;2022-10-23T09:28:50;10.48;;;6.25;;
36441;SDS011;64346;50.820;16.274;2022-10-23T09:31:05;10.90;;;7.28;;
36441;SDS011;64346;50.820;16.274;2022-10-23T09:33:33;12.75;;;7.75;;
36441;SDS011;64346;50.820;16.274;2022-10-23T09:36:05;12.45;;;7.50;;
36441;SDS011;64346;50.820;16.274;2022-10-23T09:41:18;15.73;;;9.55;;
36441;SDS011;64346;50.820;16.274;2022-10-23T09:49:03;15.90;;;9.43;;
36441;SDS011;64346;50.820;16.274;2022-10-23T09:51:31;17.52;;;9.35;;
36441;SDS011;64346;50.820;16.274;2022-10-23T09:53:59;15.38;;;8.50;;
36441;SDS011;64346;50.820;16.274;2022-10-23T09:59:18;11.60;;;7.35;;
36441;SDS011;64346;50.820;16.274;2022-10-23T10:01:51;12.20;;;6.70;;
36441;SDS011;64346;50.820;16.274;2022-10-23T10:04:33;11.80;;;6.97;;
36441;SDS011;64346;50.820;16.274;2022-10-23T10:07:03;13.63;;;8.23;;
36441;SDS011;64346;50.820;16.274;2022-10-23T10:09:43;14.30;;;8.25;;
36441;SDS011;64346;50.820;16.274;2022-10-23T10:14:43;15.38;;;8.25;;
36441;SDS011;64346;50.820;16.274;2022-10-23T10:25:12;15.00;;;9.02;;
36441;SDS011;64346;50.820;16.274;2022-10-23T10:30:48;15.93;;;8.55;;
36441;SDS011;64346;50.820;16.274;2022-10-23T10:33:38;11.70;;;7.30;;
36441;SDS011;64346;50.820;16.274;2022-10-23T10:38:58;13.77;;;8.15;;
36441;SDS011;64346;50.820;16.274;2022-10-23T10:41:40;14.95;;;9.45;;
36441;SDS011;64346;50.820;16.274;2022-10-23T10:47:36;13.30;;;7.82;;
36441;SDS011;64346;50.820;16.274;2022-10-23T11:00:32;8.90;;;5.18;;
36441;SDS011;64346;50.820;16.274;2022-10-23T11:03:01;11.52;;;4.95;;
36441;SDS011;64346;50.820;16.274;2022-10-23T11:05:51;9.77;;;5.53;;
36441;SDS011;64346;50.820;16.274;2022-10-23T11:08:22;12.32;;;5.50;;
36441;SDS011;64346;50.820;16.274;2022-10-23T11:11:45;11.23;;;6.10;;
36441;SDS011;64346;50.820;16.274;2022-10-23T11:14:15;11.43;;;5.93;;
36441;SDS011;64346;50.820;16.274;2022-10-23T11:16:46;12.35;;;6.10;;
36441;SDS011;64346;50.820;16.274;2022-10-23T11:21:55;10.18;;;6.05;;
36441;SDS011;64346;50.820;16.274;2022-10-23T11:25:45;12.43;;;6.50;;
36441;SDS011;64346;50.820;16.274;2022-10-23T11:28:16;10.20;;;5.88;;
36441;SDS011;64346;50.820;16.274;2022-10-23T11:36:49;10.77;;;5.05;;
36441;SDS011;64346;50.820;16.274;2022-10-23T11:39:22;13.25;;;5.80;;
36441;SDS011;64346;50.820;16.274;2022-10-23T11:44:40;11.68;;;5.90;;
36441;SDS011;64346;50.820;16.274;2022-10-23T11:47:29;12.40;;;6.23;;
36441;SDS011;64346;50.820;16.274;2022-10-23T11:52:51;17.73;;;8.50;;
36441;SDS011;64346;50.820;16.274;2022-10-23T11:55:53;18.75;;;8.10;;
36441;SDS011;64346;50.820;16.274;2022-10-23T12:03:55;10.63;;;5.83;;
36441;SDS011;64346;50.820;16.274;2022-10-23T12:06:27;14.70;;;6.43;;
36441;SDS011;64346;50.820;16.274;2022-10-23T12:08:59;13.65;;;5.93;;
36441;SDS011;64346;50.820;16.274;2022-10-23T12:16:59;15.18;;;6.82;;
36441;SDS011;64346;50.820;16.274;2022-10-23T12:19:29;13.80;;;6.80;;
36441;SDS011;64346;50.820;16.274;2022-10-23T12:22:09;13.95;;;6.15;;
36441;SDS011;64346;50.820;16.274;2022-10-23T12:27:30;10.95;;;5.65;;
36441;SDS011;64346;50.820;16.274;2022-10-23T12:30:14;11.45;;;5.60;;
36441;SDS011;64346;50.820;16.274;2022-10-23T12:33:26;12.07;;;6.07;;
36441;SDS011;64346;50.820;16.274;2022-10-23T12:41:09;12.27;;;6.65;;
36441;SDS011;64346;50.820;16.274;2022-10-23T12:43:43;13.68;;;6.85;;
36441;SDS011;64346;50.820;16.274;2022-10-23T12:48:52;14.73;;;6.88;;
36441;SDS011;64346;50.820;16.274;2022-10-23T12:51:22;14.52;;;7.85;;
36441;SDS011;64346;50.820;16.274;2022-10-23T12:53:53;15.40;;;6.68;;
36441;SDS011;64346;50.820;16.274;2022-10-23T12:56:20;13.95;;;7.55;;
36441;SDS011;64346;50.820;16.274;2022-10-23T12:58:50;12.30;;;6.50;;
36441;SDS011;64346;50.820;16.274;2022-10-23T13:01:22;12.50;;;6.97;;
36441;SDS011;64346;50.820;16.274;2022-10-23T13:04:00;11.45;;;6.30;;
36441;SDS011;64346;50.820;16.274;2022-10-23T13:06:33;10.32;;;5.80;;
36441;SDS011;64346;50.820;16.274;2022-10-23T13:09:02;12.00;;;6.63;;
36441;SDS011;64346;50.820;16.274;2022-10-23T13:11:30;11.77;;;5.53;;
36441;SDS011;64346;50.820;16.274;2022-10-23T13:13:57;11.20;;;5.80;;
36441;SDS011;64346;50.820;16.274;2022-10-23T13:16:25;13.10;;;5.03;;
36441;SDS011;64346;50.820;16.274;2022-10-23T13:18:52;12.32;;;5.40;;
36441;SDS011;64346;50.820;16.274;2022-10-23T13:21:23;12.45;;;5.18;;
36441;SDS011;64346;50.820;16.274;2022-10-23T13:23:52;10.57;;;4.93;;
36441;SDS011;64346;50.820;16.274;2022-10-23T13:29:00;8.25;;;4.32;;
36441;SDS011;64346;50.820;16.274;2022-10-23T13:31:34;8.80;;;4.50;;
36441;SDS011;64346;50.820;16.274;2022-10-23T13:34:05;10.07;;;4.80;;
36441;SDS011;64346;50.820;16.274;2022-10-23T13:36:48;10.75;;;4.30;;
36441;SDS011;64346;50.820;16.274;2022-10-23T13:39:27;9.23;;;4.53;;
36441;SDS011;64346;50.820;16.274;2022-10-23T13:42:15;13.93;;;5.28;;
36441;SDS011;64346;50.820;16.274;2022-10-23T13:44:42;9.93;;;4.55;;
36441;SDS011;64346;50.820;16.274;2022-10-23T13:47:11;10.75;;;4.72;;
36441;SDS011;64346;50.820;16.274;2022-10-23T13:49:42;9.10;;;4.15;;
36441;SDS011;64346;50.820;16.274;2022-10-23T13:52:10;9.52;;;4.43;;
36441;SDS011;64346;50.820;16.274;2022-10-23T13:54:40;9.48;;;4.82;;
36441;SDS011;64346;50.820;16.274;2022-10-23T13:57:08;9.10;;;4.15;;
36441;SDS011;64346;50.820;16.274;2022-10-23T13:59:40;10.80;;;4.07;;
36441;SDS011;64346;50.820;16.274;2022-10-23T14:02:41;9.20;;;3.90;;
36441;SDS011;64346;50.820;16.274;2022-10-23T14:07:28;11.40;;;4.72;;
36441;SDS011;64346;50.820;16.274;2022-10-23T14:09:56;9.77;;;4.30;;
36441;SDS011;64346;50.820;16.274;2022-10-23T14:12:23;10.32;;;4.82;;
36441;SDS011;64346;50.820;16.274;2022-10-23T14:14:51;20.33;;;10.77;;
36441;SDS011;64346;50.820;16.274;2022-10-23T14:17:19;14.13;;;6.40;;
36441;SDS011;64346;50.820;16.274;2022-10-23T14:19:47;15.75;;;7.05;;
36441;SDS011;64346;50.820;16.274;2022-10-23T14:22:18;14.75;;;7.22;;
36441;SDS011;64346;50.820;16.274;2022-10-23T14:24:46;16.67;;;7.95;;
36441;SDS011;64346;50.820;16.274;2022-10-23T14:27:13;16.08;;;7.10;;
36441;SDS011;64346;50.820;16.274;2022-10-23T14:29:41;16.52;;;7.15;;
36441;SDS011;64346;50.820;16.274;2022-10-23T14:32:08;16.58;;;8.25;;
36441;SDS011;64346;50.820;16.274;2022-10-23T14:34:39;16.27;;;8.68;;
36441;SDS011;64346;50.820;16.274;2022-10-23T14:37:08;17.65;;;8.75;;
36441;SDS011;64346;50.820;16.274;2022-10-23T14:39:35;17.08;;;8.38;;
36441;SDS011;64346;50.820;16.274;2022-10-23T14:42:02;22.13;;;8.82;;
36441;SDS011;64346;50.820;16.274;2022-10-23T14:44:30;18.75;;;9.15;;
36441;SDS011;64346;50.820;16.274;2022-10-23T14:46:58;24.70;;;9.80;;
36441;SDS011;64346;50.820;16.274;2022-10-23T14:49:25;20.98;;;8.98;;
36441;SDS011;64346;50.820;16.274;2022-10-23T14:51:53;22.50;;;9.75;;
36441;SDS011;64346;50.820;16.274;2022-10-23T14:54:20;17.02;;;8.95;;
36441;SDS011;64346;50.820;16.274;2022-10-23T14:56:48;20.75;;;9.52;;
36441;SDS011;64346;50.820;16.274;2022-10-23T14:59:15;20.85;;;9.30;;
36441;SDS011;64346;50.820;16.274;2022-10-23T15:01:43;22.13;;;9.57;;
36441;SDS011;64346;50.820;16.274;2022-10-23T15:04:14;20.38;;;8.85;;
36441;SDS011;64346;50.820;16.274;2022-10-23T15:06:42;22.92;;;8.55;;
36441;SDS011;64346;50.820;16.274;2022-10-23T15:09:09;22.45;;;8.75;;
36441;SDS011;64346;50.820;16.274;2022-10-23T15:11:37;18.60;;;8.18;;
36441;SDS011;64346;50.820;16.274;2022-10-23T15:14:08;21.65;;;9.13;;
36441;SDS011;64346;50.820;16.274;2022-10-23T15:16:35;20.52;;;9.35;;
36441;SDS011;64346;50.820;16.274;2022-10-23T15:19:03;19.00;;;7.78;;
36441;SDS011;64346;50.820;16.274;2022-10-23T15:21:37;14.65;;;8.15;;
36441;SDS011;64346;50.820;16.274;2022-10-23T15:24:07;18.65;;;7.82;;
36441;SDS011;64346;50.820;16.274;2022-10-23T15:26:34;15.90;;;6.85;;
36441;SDS011;64346;50.820;16.274;2022-10-23T15:29:01;19.40;;;7.45;;
36441;SDS011;64346;50.820;16.274;2022-10-23T15:34:03;16.17;;;6.75;;
36441;SDS011;64346;50.820;16.274;2022-10-23T15:36:32;16.95;;;7.50;;
36441;SDS011;64346;50.820;16.274;2022-10-23T15:39:00;19.95;;;8.35;;
36441;SDS011;64346;50.820;16.274;2022-10-23T15:41:31;14.93;;;7.43;;
36441;SDS011;64346;50.820;16.274;2022-10-23T15:44:01;18.00;;;9.30;;
36441;SDS011;64346;50.820;16.274;2022-10-23T15:46:29;20.90;;;8.35;;
36441;SDS011;64346;50.820;16.274;2022-10-23T15:48:56;15.43;;;6.32;;
36441;SDS011;64346;50.820;16.274;2022-10-23T15:51:24;12.20;;;4.80;;
36441;SDS011;64346;50.820;16.274;2022-10-23T15:53:52;14.48;;;6.78;;
36441;SDS011;64346;50.820;16.274;2022-10-23T15:56:20;14.48;;;6.00;;
36441;SDS011;64346;50.820;16.274;2022-10-23T15:58:47;13.25;;;6.15;;
36441;SDS011;64346;50.820;16.274;2022-10-23T16:01:16;12.98;;;5.97;;
36441;SDS011;64346;50.820;16.274;2022-10-23T16:03:44;12.65;;;6.43;;
36441;SDS011;64346;50.820;16.274;2022-10-23T16:06:12;16.20;;;7.32;;
36441;SDS011;64346;50.820;16.274;2022-10-23T16:08:40;15.48;;;7.32;;
36441;SDS011;64346;50.820;16.274;2022-10-23T16:11:12;15.90;;;7.95;;
36441;SDS011;64346;50.820;16.274;2022-10-23T16:13:54;15.27;;;8.27;;
36441;SDS011;64346;50.820;16.274;2022-10-23T16:16:25;17.85;;;8.05;;
36441;SDS011;64346;50.820;16.274;2022-10-23T16:18:53;19.33;;;7.93;;
36441;SDS011;64346;50.820;16.274;2022-10-23T16:21:24;17.17;;;8.52;;
36441;SDS011;64346;50.820;16.274;2022-10-23T16:23:54;19.63;;;9.13;;
36441;SDS011;64346;50.820;16.274;2022-10-23T16:26:22;19.38;;;9.60;;
36441;SDS011;64346;50.820;16.274;2022-10-23T16:28:53;19.17;;;9.38;;
36441;SDS011;64346;50.820;16.274;2022-10-23T16:31:21;17.70;;;9.57;;
36441;SDS011;64346;50.820;16.274;2022-10-23T16:33:50;19.85;;;10.05;;
36441;SDS011;64346;50.820;16.274;2022-10-23T16:36:28;20.45;;;9.75;;
36441;SDS011;64346;50.820;16.274;2022-10-23T16:38:55;19.00;;;9.60;;
36441;SDS011;64346;50.820;16.274;2022-10-23T16:41:25;19.08;;;10.27;;
36441;SDS011;64346;50.820;16.274;2022-10-23T16:43:53;18.27;;;8.93;;
36441;SDS011;64346;50.820;16.274;2022-10-23T16:46:21;16.58;;;9.52;;
36441;SDS011;64346;50.820;16.274;2022-10-23T16:48:49;18.23;;;9.50;;
36441;SDS011;64346;50.820;16.274;2022-10-23T16:51:23;16.55;;;8.90;;
36441;SDS011;64346;50.820;16.274;2022-10-23T16:53:52;18.42;;;8.93;;
36441;SDS011;64346;50.820;16.274;2022-10-23T16:56:22;15.13;;;7.47;;
36441;SDS011;64346;50.820;16.274;2022-10-23T16:58:50;15.48;;;7.97;;
36441;SDS011;64346;50.820;16.274;2022-10-23T17:01:22;16.38;;;7.47;;
36441;SDS011;64346;50.820;16.274;2022-10-23T17:03:54;15.02;;;7.03;;
36441;SDS011;64346;50.820;16.274;2022-10-23T17:06:25;15.95;;;7.28;;
36441;SDS011;64346;50.820;16.274;2022-10-23T17:08:54;13.35;;;7.50;;
36441;SDS011;64346;50.820;16.274;2022-10-23T17:11:31;15.45;;;7.43;;